Aiken, Texas
Current Conditions -  °F | °C
As of 4:55 PM on Wednesday 26 Nov 2014 (Local Time) from KPVW Reporting Station
Clear Clear  
Wind Chill: 54°   Ceiling: Unl
Heat Index: 54°   Visibility: 10mi
Dew Point: 27°   Wind: 5mph
Humidity: 35%   Direction: 50°NE
Pressure: 30.27"   Gusts: NA
Location:  34.14°N, 101.53°W
Report Text: KPVW 262255Z AUTO 05004KT 10SM CLR 12/M03 A3027 RMK AO2 T01211029
Loading
Personal Weather Stations






























Interactive Weather Map New forecast layout! Learn more

10-Day Weather Forecast

Advertisements
Track Severe Weather on mobile